createdAt,value
2017-08-09T06:30:24.132Z,1010.9
2017-08-09T06:31:24.785Z,1010.9
2017-08-09T06:32:26.655Z,1011.0
2017-08-09T06:33:27.527Z,1010.9
2017-08-09T06:34:28.204Z,1011.0
2017-08-09T06:35:28.959Z,1010.9
2017-08-09T06:36:29.918Z,1010.9
2017-08-09T06:37:30.673Z,1010.9
2017-08-09T06:38:31.526Z,1010.9
2017-08-09T06:39:32.263Z,1010.9
2017-08-09T06:40:32.990Z,1010.9
2017-08-09T06:41:33.656Z,1010.9
2017-08-09T06:42:34.711Z,1011.0
2017-08-09T06:43:35.435Z,1011.0
2017-08-09T06:44:36.114Z,1011.0
2017-08-09T06:45:36.816Z,1011.0
2017-08-09T06:46:37.475Z,1011.0
2017-08-09T06:47:38.222Z,1011.1
2017-08-09T06:48:39.440Z,1011.1
2017-08-09T06:49:40.124Z,1011.1
2017-08-09T06:50:40.846Z,1011.1
2017-08-09T06:51:41.485Z,1011.1
2017-08-09T06:52:42.170Z,1011.1
2017-08-09T06:53:42.931Z,1011.1
2017-08-09T06:54:43.622Z,1011.1
2017-08-09T06:55:44.681Z,1011.1
2017-08-09T06:56:45.339Z,1011.1
2017-08-09T06:57:46.020Z,1011.2
2017-08-09T06:58:46.807Z,1011.1
2017-08-09T06:59:47.491Z,1011.2
2017-08-09T07:00:48.192Z,1011.2
2017-08-09T07:01:49.153Z,1011.2
2017-08-09T07:02:49.842Z,1011.2
2017-08-09T07:03:50.894Z,1011.2
2017-08-09T07:04:51.569Z,1011.2
2017-08-09T07:05:52.246Z,1011.2
2017-08-09T07:06:52.979Z,1011.2
2017-08-09T07:07:53.983Z,1011.3
2017-08-09T07:08:54.858Z,1011.3
2017-08-09T07:09:55.560Z,1011.3
2017-08-09T07:10:56.299Z,1011.3
2017-08-09T07:11:57.049Z,1011.3
2017-08-09T07:12:57.718Z,1011.3
2017-08-09T07:13:58.554Z,1011.3
2017-08-09T07:14:59.673Z,1011.3
2017-08-09T07:16:00.341Z,1011.3
2017-08-09T07:17:01.546Z,1011.3
2017-08-09T07:18:02.216Z,1011.3
2017-08-09T07:19:02.936Z,1011.3
2017-08-09T07:20:04.063Z,1011.3
2017-08-09T07:21:04.746Z,1011.3
2017-08-09T07:22:05.446Z,1011.4
2017-08-09T07:23:06.110Z,1011.3
2017-08-09T07:24:06.868Z,1011.3
2017-08-09T07:25:07.779Z,1011.4
2017-08-09T07:26:08.766Z,1011.3
2017-08-09T07:27:09.460Z,1011.3
2017-08-09T07:28:10.148Z,1011.3
2017-08-09T07:29:10.866Z,1011.4
2017-08-09T07:30:11.672Z,1011.4
2017-08-09T07:31:12.363Z,1011.4
2017-08-09T07:32:13.373Z,1011.4
2017-08-09T07:33:14.059Z,1011.3
2017-08-09T07:34:14.766Z,1011.4
2017-08-09T07:35:15.541Z,1011.4
2017-08-09T07:36:16.231Z,1011.4
2017-08-09T07:37:17.147Z,1011.5
2017-08-09T07:38:18.174Z,1011.4
2017-08-09T07:39:19.087Z,1011.5
2017-08-09T07:40:19.801Z,1011.4
2017-08-09T07:41:20.547Z,1011.5
2017-08-09T07:42:21.307Z,1011.4
2017-08-09T07:43:22.055Z,1011.5
2017-08-09T07:44:23.095Z,1011.4
2017-08-09T07:45:23.900Z,1011.4
2017-08-09T07:46:24.595Z,1011.4
2017-08-09T07:47:25.269Z,1011.4
2017-08-09T07:48:26.044Z,1011.4
2017-08-09T07:49:27.042Z,1011.4
2017-08-09T07:50:27.767Z,1011.4
2017-08-09T07:51:28.410Z,1011.4
2017-08-09T07:52:29.101Z,1011.4
2017-08-09T07:53:29.819Z,1011.4
2017-08-09T07:54:30.726Z,1011.5
2017-08-09T07:55:31.458Z,1011.4
2017-08-09T07:56:32.440Z,1011.5
2017-08-09T07:57:33.134Z,1011.4
2017-08-09T07:58:33.809Z,1011.4
2017-08-09T07:59:34.604Z,1011.4
2017-08-09T08:00:35.531Z,1011.5
2017-08-09T08:01:36.525Z,1011.5
2017-08-09T08:02:37.218Z,1011.5
2017-08-09T08:03:37.917Z,1011.6
2017-08-09T08:04:38.654Z,1011.6
2017-08-09T08:05:39.335Z,1011.6
2017-08-09T08:06:40.042Z,1011.6
2017-08-09T08:07:41.022Z,1011.6
2017-08-09T08:08:41.695Z,1011.6
2017-08-09T08:09:42.711Z,1011.6
2017-08-09T08:10:43.388Z,1011.7
2017-08-09T08:11:44.118Z,1011.7
2017-08-09T08:12:44.820Z,1011.7
2017-08-09T08:13:45.816Z,1011.7
2017-08-09T08:14:46.589Z,1011.7
2017-08-09T08:15:47.279Z,1011.7
2017-08-09T08:16:47.985Z,1011.7
2017-08-09T08:17:48.656Z,1011.7
2017-08-09T08:18:49.402Z,1011.6
2017-08-09T08:19:50.558Z,1011.6
2017-08-09T08:20:51.307Z,1011.7
2017-08-09T08:21:52.010Z,1011.7
2017-08-09T08:22:52.702Z,1011.7
2017-08-09T08:23:53.434Z,1011.7
2017-08-09T08:24:54.265Z,1011.7
2017-08-09T08:25:55.310Z,1011.7
2017-08-09T08:26:56.083Z,1011.7
2017-08-09T08:27:56.772Z,1011.7
2017-08-09T08:28:57.518Z,1011.7
2017-08-09T08:29:58.261Z,1011.7
2017-08-09T08:30:59.297Z,1011.7
2017-08-09T08:32:00.008Z,1011.7
2017-08-09T08:33:00.683Z,1011.7
2017-08-09T08:34:01.371Z,1011.7
2017-08-09T08:35:02.123Z,1011.7
2017-08-09T08:36:02.872Z,1011.7
2017-08-09T08:37:03.846Z,1011.7
2017-08-09T08:38:04.546Z,1011.8
2017-08-09T08:39:05.245Z,1011.7
2017-08-09T08:40:06.017Z,1011.7
2017-08-09T08:41:06.712Z,1011.7
2017-08-09T08:42:07.429Z,1011.7
2017-08-09T08:43:08.385Z,1011.7
2017-08-09T08:44:09.081Z,1011.7
2017-08-09T08:45:09.874Z,1011.7
2017-08-09T08:46:10.563Z,1011.7
2017-08-09T08:47:11.258Z,1011.8
2017-08-09T08:48:12.259Z,1011.8
2017-08-09T08:49:13.000Z,1011.8
2017-08-09T08:50:13.775Z,1011.8
2017-08-09T08:51:14.522Z,1011.8
2017-08-09T08:52:15.199Z,1011.8
2017-08-09T08:53:15.896Z,1011.8
2017-08-09T08:54:16.927Z,1011.8
2017-08-09T08:55:17.662Z,1011.8
2017-08-09T08:56:18.396Z,1011.8
2017-08-09T08:57:19.086Z,1011.8
2017-08-09T08:58:19.827Z,1011.8
2017-08-09T08:59:20.883Z,1011.8
2017-08-09T09:00:21.622Z,1011.8
2017-08-09T09:01:22.315Z,1011.8
2017-08-09T09:02:23.097Z,1011.8
2017-08-09T09:03:23.761Z,1011.8
2017-08-09T09:04:24.451Z,1011.9
2017-08-09T09:05:26.054Z,1011.9
2017-08-09T09:06:26.712Z,1011.9
2017-08-09T09:07:27.391Z,1011.9
2017-08-09T09:08:28.095Z,1012.0
2017-08-09T09:09:28.868Z,1012.0
2017-08-09T09:10:29.602Z,1012.0
2017-08-09T09:11:30.309Z,1012.0
2017-08-09T09:12:31.383Z,1011.9
2017-08-09T09:13:32.093Z,1012.0
2017-08-09T09:14:32.771Z,1012.0
2017-08-09T09:15:33.512Z,1012.0
2017-08-09T09:16:34.214Z,1012.0
2017-08-09T09:17:35.202Z,1011.9
2017-08-09T09:18:35.890Z,1012.0
2017-08-09T09:19:36.574Z,1011.9
2017-08-09T09:20:37.428Z,1012.0
2017-08-09T09:21:38.116Z,1012.0
2017-08-09T09:22:38.792Z,1012.0
2017-08-09T09:23:39.806Z,1012.0
2017-08-09T09:24:40.473Z,1012.0
2017-08-09T09:25:41.247Z,1012.0
2017-08-09T09:26:42.001Z,1012.0
2017-08-09T09:27:42.679Z,1012.0
2017-08-09T09:28:43.711Z,1012.0
2017-08-09T09:29:44.402Z,1012.0
2017-08-09T09:30:45.151Z,1012.0
2017-08-09T09:31:45.878Z,1012.0
2017-08-09T09:32:46.569Z,1012.1
2017-08-09T09:33:47.284Z,1012.1
2017-08-09T09:34:48.310Z,1012.1
2017-08-09T09:35:49.253Z,1012.0
2017-08-09T09:36:49.936Z,1012.0
2017-08-09T09:37:50.611Z,1012.0
2017-08-09T09:38:51.339Z,1012.1
2017-08-09T09:39:52.052Z,1012.1
2017-08-09T09:40:53.253Z,1012.1
2017-08-09T09:41:53.931Z,1012.1
2017-08-09T09:42:54.643Z,1012.1
2017-08-09T09:43:55.313Z,1012.1
2017-08-09T09:44:56.059Z,1012.1
2017-08-09T09:45:57.039Z,1012.1
2017-08-09T09:46:57.723Z,1012.1
2017-08-09T09:47:58.432Z,1012.2
2017-08-09T09:48:59.105Z,1012.1
2017-08-09T09:49:59.892Z,1012.1
2017-08-09T09:51:00.782Z,1012.1
2017-08-09T09:52:01.759Z,1012.1
2017-08-09T09:53:02.461Z,1012.1
2017-08-09T09:54:03.140Z,1012.1
2017-08-09T09:55:03.999Z,1012.2
2017-08-09T09:56:04.720Z,1012.2
2017-08-09T09:57:05.397Z,1012.1
2017-08-09T09:58:06.386Z,1012.1
2017-08-09T09:59:07.110Z,1012.1
2017-08-09T10:00:07.861Z,1012.1
2017-08-09T10:01:08.608Z,1012.1
2017-08-09T10:02:09.259Z,1012.1
2017-08-09T10:03:09.954Z,1012.1
2017-08-09T10:04:10.940Z,1012.1
2017-08-09T10:05:11.677Z,1012.1
2017-08-09T10:06:12.372Z,1012.1
2017-08-09T10:07:13.114Z,1012.1
2017-08-09T10:08:13.840Z,1012.1
2017-08-09T10:09:14.525Z,1012.1
2017-08-09T10:10:15.567Z,1012.1
2017-08-09T10:11:16.263Z,1012.1
2017-08-09T10:12:16.954Z,1012.1
2017-08-09T10:13:17.690Z,1012.0
2017-08-09T10:14:18.375Z,1012.1
2017-08-09T10:15:19.417Z,1012.1
2017-08-09T10:16:20.177Z,1012.1
2017-08-09T10:17:20.864Z,1012.1
2017-08-09T10:18:21.555Z,1012.1
2017-08-09T10:19:22.312Z,1012.1
2017-08-09T10:20:23.062Z,1012.1
2017-08-09T10:21:23.806Z,1012.1
2017-08-09T10:22:24.797Z,1012.1
2017-08-09T10:23:25.496Z,1012.2
2017-08-09T10:24:26.222Z,1012.2
2017-08-09T10:25:27.007Z,1012.2
2017-08-09T10:26:27.717Z,1012.2
2017-08-09T10:27:28.419Z,1012.1
2017-08-09T10:28:29.400Z,1012.2
2017-08-09T10:29:30.091Z,1012.2
2017-08-09T10:30:30.855Z,1012.2
2017-08-09T10:31:31.523Z,1012.2
2017-08-09T10:32:32.230Z,1012.3
2017-08-09T10:33:32.908Z,1012.2
2017-08-09T10:34:33.886Z,1012.2
2017-08-09T10:35:34.728Z,1012.2
2017-08-09T10:36:35.515Z,1012.2
2017-08-09T10:37:36.203Z,1012.2
2017-08-09T10:38:36.889Z,1012.2
2017-08-09T10:39:37.591Z,1012.2
2017-08-09T10:40:38.754Z,1012.2
2017-08-09T10:41:39.420Z,1012.2
2017-08-09T10:42:40.109Z,1012.2
2017-08-09T10:43:40.806Z,1012.2
2017-08-09T10:44:41.518Z,1012.2
2017-08-09T10:45:42.503Z,1012.2
2017-08-09T10:46:43.435Z,1012.2
2017-08-09T10:47:44.112Z,1012.2
2017-08-09T10:48:44.807Z,1012.2
2017-08-09T10:49:45.565Z,1012.2
2017-08-09T10:50:46.276Z,1012.2
2017-08-09T10:51:47.318Z,1012.2
2017-08-09T10:52:48.028Z,1012.2
2017-08-09T10:53:48.709Z,1012.2
2017-08-09T10:54:49.392Z,1012.2
2017-08-09T10:55:50.093Z,1012.2
2017-08-09T10:56:50.921Z,1012.2
2017-08-09T10:57:51.926Z,1012.2
2017-08-09T10:58:52.653Z,1012.1
2017-08-09T10:59:53.356Z,1012.1
2017-08-09T11:00:54.209Z,1012.1
2017-08-09T11:01:54.876Z,1012.1
2017-08-09T11:02:55.870Z,1012.0
2017-08-09T11:03:56.557Z,1012.0
2017-08-09T11:04:57.259Z,1012.0
2017-08-09T11:05:58.006Z,1012.0
2017-08-09T11:06:58.694Z,1012.0
2017-08-09T11:07:59.383Z,1012.0
2017-08-09T11:09:00.414Z,1012.0
2017-08-09T11:10:01.154Z,1012.0
2017-08-09T11:11:02.057Z,1012.1
2017-08-09T11:12:02.737Z,1012.1
2017-08-09T11:13:03.487Z,1012.1
2017-08-09T11:14:04.467Z,1012.1
2017-08-09T11:15:05.166Z,1012.1
2017-08-09T11:16:06.088Z,1012.0
2017-08-09T11:17:06.770Z,1012.1
2017-08-09T11:18:07.511Z,1012.1
2017-08-09T11:19:08.189Z,1012.1
2017-08-09T11:20:09.207Z,1012.0
2017-08-09T11:21:09.933Z,1012.1
2017-08-09T11:22:10.690Z,1012.0
2017-08-09T11:23:11.448Z,1012.1
2017-08-09T11:24:12.158Z,1012.1
2017-08-09T11:25:12.840Z,1012.0
2017-08-09T11:26:13.921Z,1012.0
2017-08-09T11:27:14.633Z,1012.0
2017-08-09T11:28:15.302Z,1012.0
2017-08-09T11:29:16.041Z,1012.0
2017-08-09T11:30:16.758Z,1012.0
2017-08-09T11:31:17.833Z,1012.0
2017-08-09T11:32:18.511Z,1012.0
2017-08-09T11:33:19.225Z,1012.0
2017-08-09T11:34:19.900Z,1012.0
2017-08-09T11:35:20.593Z,1012.0
2017-08-09T11:36:21.480Z,1012.1
2017-08-09T11:37:22.526Z,1012.1
2017-08-09T11:38:23.196Z,1012.0
2017-08-09T11:39:23.883Z,1012.1
2017-08-09T11:40:24.613Z,1012.0
2017-08-09T11:41:25.552Z,1012.1
2017-08-09T11:42:26.291Z,1012.1
2017-08-09T11:43:27.371Z,1012.1
2017-08-09T11:44:28.105Z,1012.1
2017-08-09T11:45:28.840Z,1012.0
2017-08-09T11:46:29.504Z,1012.0
2017-08-09T11:47:30.173Z,1012.0
2017-08-09T11:48:31.031Z,1012.0
2017-08-09T11:49:32.049Z,1012.0
2017-08-09T11:50:32.789Z,1012.0
2017-08-09T11:51:33.671Z,1012.0
2017-08-09T11:52:34.318Z,1012.0
2017-08-09T11:53:35.063Z,1012.0
2017-08-09T11:54:35.746Z,1012.0
2017-08-09T11:55:36.810Z,1012.0
2017-08-09T11:56:37.487Z,1012.0
2017-08-09T11:57:38.174Z,1012.0
2017-08-09T11:58:39.161Z,1011.9
2017-08-09T11:59:39.839Z,1012.0
2017-08-09T12:00:40.834Z,1012.0
2017-08-09T12:01:41.520Z,1012.0
2017-08-09T12:02:42.214Z,1012.0
2017-08-09T12:03:42.952Z,1012.0
2017-08-09T12:04:43.636Z,1012.0
2017-08-09T12:05:44.393Z,1012.0
2017-08-09T12:06:45.386Z,1012.0
2017-08-09T12:07:46.104Z,1012.0
2017-08-09T12:08:47.070Z,1012.0
2017-08-09T12:09:47.754Z,1012.0
2017-08-09T12:10:48.735Z,1012.0
2017-08-09T12:11:49.712Z,1012.0
2017-08-09T12:12:50.418Z,1012.0
2017-08-09T12:13:51.141Z,1012.0
2017-08-09T12:14:51.861Z,1012.0
2017-08-09T12:15:52.722Z,1012.0
2017-08-09T12:16:53.490Z,1012.0
2017-08-09T12:17:54.563Z,1012.0
2017-08-09T12:18:55.259Z,1012.0
2017-08-09T12:19:55.972Z,1012.0
2017-08-09T12:20:56.680Z,1012.0
2017-08-09T12:21:57.379Z,1012.0
2017-08-09T12:22:58.065Z,1012.0
2017-08-09T12:23:59.055Z,1012.0
2017-08-09T12:24:59.786Z,1012.0
2017-08-09T12:26:00.477Z,1012.0
2017-08-09T12:27:01.158Z,1012.0
2017-08-09T12:28:01.854Z,1012.0
2017-08-09T12:29:02.624Z,1012.0
2017-08-09T12:30:03.620Z,1012.0
2017-08-09T12:31:04.310Z,1012.0
2017-08-09T12:32:04.994Z,1012.1
2017-08-09T12:33:05.701Z,1012.1
2017-08-09T12:34:06.416Z,1012.0
2017-08-09T12:35:07.302Z,1012.0
2017-08-09T12:36:08.292Z,1012.0
2017-08-09T12:37:08.995Z,1012.0
2017-08-09T12:38:09.696Z,1012.0
2017-08-09T12:39:10.371Z,1012.0
2017-08-09T12:40:11.198Z,1012.0
2017-08-09T12:41:12.239Z,1012.0
2017-08-09T12:42:12.927Z,1012.0
2017-08-09T12:43:13.624Z,1012.0
2017-08-09T12:44:14.320Z,1012.0
2017-08-09T12:45:15.149Z,1012.0
2017-08-09T12:46:15.840Z,1012.0
2017-08-09T12:47:16.894Z,1012.0
2017-08-09T12:48:17.540Z,1012.0
2017-08-09T12:49:18.245Z,1012.0
2017-08-09T12:50:19.039Z,1012.0
2017-08-09T12:51:19.745Z,1012.0
2017-08-09T12:52:20.462Z,1012.0
2017-08-09T12:53:21.477Z,1012.0
2017-08-09T12:54:22.158Z,1012.0
2017-08-09T12:55:23.106Z,1012.0
2017-08-09T12:56:23.800Z,1011.9
2017-08-09T12:57:24.500Z,1011.9
2017-08-09T12:58:25.540Z,1011.9
2017-08-09T12:59:26.508Z,1012.0
2017-08-09T13:00:27.330Z,1012.0
2017-08-09T13:01:28.030Z,1012.0
2017-08-09T13:02:28.753Z,1012.0
2017-08-09T13:03:29.446Z,1011.9
2017-08-09T13:04:30.503Z,1012.0
2017-08-09T13:05:31.572Z,1012.0
2017-08-09T13:06:32.262Z,1011.9
2017-08-09T13:07:32.958Z,1011.9
2017-08-09T13:08:33.745Z,1012.0
2017-08-09T13:09:34.795Z,1012.0
2017-08-09T13:10:35.489Z,1012.0
2017-08-09T13:11:36.187Z,1011.9
2017-08-09T13:12:37.094Z,1011.9
2017-08-09T13:13:37.874Z,1012.0
2017-08-09T13:14:38.590Z,1012.0
2017-08-09T13:15:39.595Z,1012.0
2017-08-09T13:16:40.306Z,1012.0
2017-08-09T13:17:41.041Z,1012.0
2017-08-09T13:18:42.564Z,1012.0
2017-08-09T13:19:43.497Z,1011.9
2017-08-09T13:20:44.229Z,1011.9
2017-08-09T13:21:45.496Z,1011.9
2017-08-09T13:22:46.484Z,1011.9
2017-08-09T13:25:02.809Z,1011.9
2017-08-09T13:26:03.486Z,1011.9
2017-08-09T13:27:04.535Z,1011.9
2017-08-09T13:28:05.304Z,1011.9
2017-08-09T13:29:07.003Z,1011.9
2017-08-09T13:30:07.770Z,1011.9
2017-08-09T13:31:08.461Z,1011.9
2017-08-09T13:32:09.464Z,1011.9
2017-08-09T13:33:10.142Z,1011.9
2017-08-09T13:34:10.955Z,1012.0
2017-08-09T13:35:11.641Z,1012.0
2017-08-09T13:36:12.340Z,1012.0
2017-08-09T13:37:13.035Z,1012.0
2017-08-09T13:38:14.032Z,1011.9
2017-08-09T13:39:14.826Z,1012.0
2017-08-09T13:40:15.585Z,1012.0
2017-08-09T13:41:16.327Z,1012.0
2017-08-09T13:42:17.126Z,1011.9
2017-08-09T13:43:18.113Z,1011.9
2017-08-09T13:44:18.869Z,1011.9
2017-08-09T13:45:19.556Z,1011.9
2017-08-09T13:46:20.248Z,1011.9
2017-08-09T13:47:20.943Z,1011.9
2017-08-09T13:48:21.644Z,1012.0
2017-08-09T13:49:22.854Z,1011.9
2017-08-09T13:50:23.731Z,1011.9
2017-08-09T13:51:24.479Z,1011.9
2017-08-09T13:52:25.202Z,1011.9
2017-08-09T13:53:25.941Z,1011.9
2017-08-09T13:54:26.779Z,1012.0
2017-08-09T13:55:27.763Z,1011.9
2017-08-09T13:56:28.499Z,1011.9
2017-08-09T13:57:29.182Z,1011.9
2017-08-09T13:58:29.878Z,1011.9
2017-08-09T13:59:30.666Z,1011.9
2017-08-09T14:00:31.655Z,1011.8
2017-08-09T14:01:32.401Z,1011.8
2017-08-09T14:02:33.103Z,1011.8
2017-08-09T14:03:33.862Z,1011.8
2017-08-09T14:04:34.718Z,1011.9
2017-08-09T14:05:35.400Z,1011.9
2017-08-09T14:06:36.415Z,1011.9
2017-08-09T14:07:37.140Z,1011.9
2017-08-09T14:08:37.813Z,1011.9
2017-08-09T14:09:38.587Z,1011.8
2017-08-09T14:10:39.860Z,1011.8
2017-08-09T14:11:40.850Z,1011.9
2017-08-09T14:12:41.557Z,1011.9
2017-08-09T14:13:42.238Z,1011.9
2017-08-09T14:14:43.049Z,1011.9
2017-08-09T14:15:43.738Z,1011.9
2017-08-09T14:16:44.450Z,1011.9
2017-08-09T14:17:45.434Z,1011.9
2017-08-09T14:18:46.152Z,1011.8
2017-08-09T14:19:47.006Z,1011.9
2017-08-09T14:20:47.731Z,1011.9
2017-08-09T14:21:48.421Z,1011.9
2017-08-09T14:22:49.116Z,1012.0
2017-08-09T14:23:50.152Z,1012.0
2017-08-09T14:24:50.954Z,1012.0
2017-08-09T14:25:51.643Z,1012.0
2017-08-09T14:26:52.339Z,1012.0
2017-08-09T14:27:53.033Z,1012.0
2017-08-09T14:28:54.034Z,1012.0
2017-08-09T14:29:54.729Z,1012.1
2017-08-09T14:30:55.425Z,1012.1
2017-08-09T14:31:56.123Z,1012.1
2017-08-09T14:32:56.850Z,1012.0
2017-08-09T14:33:57.783Z,1012.1
2017-08-09T14:34:58.783Z,1012.1
2017-08-09T14:35:59.546Z,1012.1
2017-08-09T14:37:00.239Z,1012.1
2017-08-09T14:38:00.919Z,1012.1
2017-08-09T14:39:01.770Z,1012.1
2017-08-09T14:40:02.494Z,1012.1
2017-08-09T14:41:03.502Z,1012.1
2017-08-09T14:42:04.195Z,1012.1
2017-08-09T14:43:04.905Z,1012.1
2017-08-09T14:44:05.641Z,1012.0
2017-08-09T14:45:06.365Z,1012.1
2017-08-09T14:46:07.117Z,1012.0
2017-08-09T14:47:08.125Z,1012.0
2017-08-09T14:48:08.818Z,1011.9
2017-08-09T14:49:09.646Z,1012.0
2017-08-09T14:50:10.348Z,1012.0
2017-08-09T14:51:11.031Z,1012.1
2017-08-09T14:52:11.735Z,1012.0
2017-08-09T14:53:12.830Z,1012.1
2017-08-09T14:54:13.708Z,1012.0
2017-08-09T14:55:14.422Z,1012.0
2017-08-09T14:56:15.115Z,1012.1
2017-08-09T14:57:15.853Z,1012.0
2017-08-09T14:58:16.551Z,1012.0
2017-08-09T14:59:17.786Z,1012.0
2017-08-09T15:00:18.464Z,1012.0
2017-08-09T15:01:19.544Z,1012.0
2017-08-09T15:02:20.270Z,1012.0
2017-08-09T15:03:20.954Z,1012.0
2017-08-09T15:04:21.929Z,1012.0
2017-08-09T15:05:22.910Z,1012.0
2017-08-09T15:06:23.607Z,1012.1
2017-08-09T15:07:24.326Z,1012.1
2017-08-09T15:08:25.036Z,1012.1
2017-08-09T15:09:25.863Z,1012.1
2017-08-09T15:10:26.965Z,1012.1
2017-08-09T15:11:27.898Z,1012.1
2017-08-09T15:12:28.709Z,1012.1
2017-08-09T15:13:30.315Z,1012.1
2017-08-09T15:14:31.118Z,1012.1
2017-08-09T15:15:31.846Z,1012.1
2017-08-09T15:16:32.560Z,1012.1
2017-08-09T15:17:33.570Z,1012.1
2017-08-09T15:18:34.266Z,1012.1
2017-08-09T15:19:35.124Z,1012.1
2017-08-09T15:20:36.192Z,1012.2
2017-08-09T15:21:36.919Z,1012.2
2017-08-09T15:22:37.916Z,1012.3
2017-08-09T15:23:38.644Z,1012.2
2017-08-09T15:24:39.345Z,1012.2
2017-08-09T15:25:40.103Z,1012.2
2017-08-09T15:26:40.777Z,1012.2
2017-08-09T15:27:41.523Z,1012.2
2017-08-09T15:28:42.565Z,1012.2
2017-08-09T15:29:43.507Z,1012.2
2017-08-09T15:30:44.299Z,1012.3
2017-08-09T15:31:45.023Z,1012.3
2017-08-09T15:32:45.743Z,1012.3
2017-08-09T15:33:46.461Z,1012.3
2017-08-09T15:34:48.329Z,1012.2
2017-08-09T15:35:48.991Z,1012.2
2017-08-09T15:36:49.684Z,1012.2
2017-08-09T15:37:50.391Z,1012.2
2017-08-09T15:38:51.093Z,1012.2
2017-08-09T15:39:52.142Z,1012.2
2017-08-09T15:40:52.876Z,1012.2
2017-08-09T15:41:53.595Z,1012.2
2017-08-09T15:42:54.298Z,1012.2
2017-08-09T15:43:54.992Z,1012.2
2017-08-09T15:44:55.875Z,1012.2
2017-08-09T15:45:56.884Z,1012.2
2017-08-09T15:46:57.617Z,1012.2
2017-08-09T15:47:58.333Z,1012.2
2017-08-09T15:48:59.008Z,1012.2
2017-08-09T15:49:59.749Z,1012.2
2017-08-09T15:51:00.801Z,1012.2
2017-08-09T15:52:01.497Z,1012.2
2017-08-09T15:53:02.200Z,1012.1
2017-08-09T15:54:02.954Z,1012.2
2017-08-09T15:55:03.784Z,1012.2
2017-08-09T15:56:04.480Z,1012.2
2017-08-09T15:57:05.478Z,1012.2
2017-08-09T15:58:06.169Z,1012.2
2017-08-09T15:59:06.899Z,1012.2
2017-08-09T16:00:07.765Z,1012.2
2017-08-09T16:01:08.791Z,1012.2
2017-08-09T16:02:09.487Z,1012.2
2017-08-09T16:03:10.483Z,1012.3
2017-08-09T16:04:11.210Z,1012.3
2017-08-09T16:05:12.037Z,1012.3
2017-08-09T16:06:12.698Z,1012.2
2017-08-09T16:07:13.398Z,1012.2
2017-08-09T16:08:14.422Z,1012.3
2017-08-09T16:09:15.103Z,1012.2
2017-08-09T16:10:15.843Z,1012.3
2017-08-09T16:11:16.705Z,1012.3
2017-08-09T16:12:17.367Z,1012.2
2017-08-09T16:13:18.064Z,1012.3
2017-08-09T16:14:19.055Z,1012.3
2017-08-09T16:15:20.150Z,1012.2
2017-08-09T16:16:20.895Z,1012.2
2017-08-09T16:17:21.601Z,1012.2
2017-08-09T16:18:22.299Z,1012.1
2017-08-09T16:19:23.310Z,1012.2
2017-08-09T16:20:24.074Z,1012.1
2017-08-09T16:21:24.796Z,1012.1
2017-08-09T16:22:25.557Z,1012.1
2017-08-09T16:23:26.253Z,1012.1
2017-08-09T16:24:26.943Z,1012.1
2017-08-09T16:25:28.004Z,1012.1
2017-08-09T16:26:28.707Z,1012.0
2017-08-09T16:27:29.400Z,1012.1
2017-08-09T16:28:31.160Z,1012.1
2017-08-09T16:29:31.872Z,1012.1
2017-08-09T16:30:32.801Z,1012.1
2017-08-09T16:31:33.873Z,1012.1
2017-08-09T16:32:34.541Z,1012.1
2017-08-09T16:33:35.261Z,1012.1
2017-08-09T16:34:35.973Z,1012.1
2017-08-09T16:35:36.730Z,1012.2
2017-08-09T16:36:37.774Z,1012.1
2017-08-09T16:37:38.464Z,1012.2
2017-08-09T16:38:39.165Z,1012.1
2017-08-09T16:39:39.932Z,1012.1
2017-08-09T16:40:40.825Z,1012.1
2017-08-09T16:41:41.528Z,1012.1
2017-08-09T16:42:42.531Z,1012.1
2017-08-09T16:43:43.243Z,1012.1
2017-08-09T16:44:43.951Z,1012.1
2017-08-09T16:45:44.889Z,1012.1
2017-08-09T16:46:45.553Z,1012.1
2017-08-09T16:47:46.551Z,1012.1
2017-08-09T16:48:47.584Z,1012.2
2017-08-09T16:49:48.357Z,1012.1
2017-08-09T16:50:49.078Z,1012.2
2017-08-09T16:51:49.851Z,1012.2
2017-08-09T16:52:50.558Z,1012.2
2017-08-09T16:53:51.548Z,1012.2
2017-08-09T16:54:52.243Z,1012.1
2017-08-09T16:55:53.005Z,1012.2
2017-08-09T16:56:55.831Z,1012.2
2017-08-09T16:57:55.591Z,1012.2
2017-08-09T16:58:56.600Z,1012.2
2017-08-09T16:59:57.369Z,1012.1
2017-08-09T17:00:58.113Z,1012.1
2017-08-09T17:01:58.886Z,1012.2
2017-08-09T17:02:59.567Z,1012.2
2017-08-09T17:04:00.729Z,1012.1
2017-08-09T17:05:01.416Z,1012.2
2017-08-09T17:06:02.158Z,1012.2
2017-08-09T17:07:02.964Z,1012.2
2017-08-09T17:08:03.645Z,1012.2
2017-08-09T17:09:04.333Z,1012.3
2017-08-09T17:10:05.329Z,1012.3
2017-08-09T17:11:06.077Z,1012.3
2017-08-09T17:12:06.869Z,1012.3
2017-08-09T17:13:07.600Z,1012.2
2017-08-09T17:14:08.270Z,1012.2
2017-08-09T17:15:09.342Z,1012.2
2017-08-09T17:16:10.101Z,1012.2
2017-08-09T17:17:10.839Z,1012.3
2017-08-09T17:18:11.536Z,1012.2
2017-08-09T17:19:12.264Z,1012.3
2017-08-09T17:20:12.924Z,1012.3
2017-08-09T17:21:14.172Z,1012.2
2017-08-09T17:22:14.895Z,1012.2
2017-08-09T17:23:15.594Z,1012.2
2017-08-09T17:24:16.276Z,1012.3
2017-08-09T17:25:16.942Z,1012.3
2017-08-09T17:26:17.880Z,1012.3
2017-08-09T17:27:18.934Z,1012.3
2017-08-09T17:28:19.626Z,1012.3
2017-08-09T17:29:20.328Z,1012.3
2017-08-09T17:30:21.078Z,1012.3
2017-08-09T17:31:21.807Z,1012.3
2017-08-09T17:32:22.837Z,1012.4
2017-08-09T17:33:23.540Z,1012.4
2017-08-09T17:34:24.241Z,1012.4
2017-08-09T17:35:24.939Z,1012.4
2017-08-09T17:36:25.678Z,1012.4
2017-08-09T17:37:26.453Z,1012.4
2017-08-09T17:38:27.462Z,1012.4
2017-08-09T17:39:28.139Z,1012.4
2017-08-09T17:40:28.829Z,1012.4
2017-08-09T17:41:29.708Z,1012.4
2017-08-09T17:42:30.356Z,1012.5
2017-08-09T17:43:31.359Z,1012.4
2017-08-09T17:44:32.079Z,1012.5
2017-08-09T17:45:32.795Z,1012.5
2017-08-09T17:46:33.855Z,1012.4
2017-08-09T17:47:34.563Z,1012.5
2017-08-09T17:48:35.306Z,1012.4
2017-08-09T17:49:36.323Z,1012.4
2017-08-09T17:50:37.096Z,1012.4
2017-08-09T17:51:37.999Z,1012.4
2017-08-09T17:52:38.676Z,1012.5
2017-08-09T17:53:39.387Z,1012.5
2017-08-09T17:54:40.125Z,1012.5
2017-08-09T17:55:41.164Z,1012.4
2017-08-09T17:56:41.954Z,1012.5
2017-08-09T17:57:42.647Z,1012.4
2017-08-09T17:58:43.384Z,1012.4
2017-08-09T17:59:44.153Z,1012.5
2017-08-09T18:00:45.132Z,1012.5
2017-08-09T18:01:46.011Z,1012.5
2017-08-09T18:02:46.755Z,1012.5
2017-08-09T18:03:47.537Z,1012.5
2017-08-09T18:04:48.182Z,1012.5
2017-08-09T18:05:48.882Z,1012.5
2017-08-09T18:06:50.060Z,1012.5
2017-08-09T18:07:50.811Z,1012.5
2017-08-09T18:08:51.618Z,1012.5
2017-08-09T18:09:52.290Z,1012.5
2017-08-09T18:10:53.003Z,1012.5
2017-08-09T18:11:54.247Z,1012.5
2017-08-09T18:12:54.936Z,1012.5
2017-08-09T18:13:55.642Z,1012.5
2017-08-09T18:14:56.422Z,1012.5
2017-08-09T18:15:57.125Z,1012.5
2017-08-09T18:16:58.355Z,1012.6
2017-08-09T18:17:59.088Z,1012.6
2017-08-09T18:18:59.755Z,1012.5
2017-08-09T18:20:00.447Z,1012.5
2017-08-09T18:21:01.159Z,1012.5
2017-08-09T18:22:01.976Z,1012.5
2017-08-09T18:23:02.969Z,1012.5
2017-08-09T18:24:03.695Z,1012.5
2017-08-09T18:25:04.350Z,1012.5
2017-08-09T18:26:05.037Z,1012.5
2017-08-09T18:27:05.790Z,1012.5
2017-08-09T18:28:06.799Z,1012.4
2017-08-09T18:29:07.502Z,1012.4
2017-08-09T18:30:08.241Z,1012.4
2017-08-09T18:31:08.961Z,1012.4
2017-08-09T18:32:09.884Z,1012.4
2017-08-09T18:33:10.568Z,1012.4
2017-08-09T18:34:11.609Z,1012.4
2017-08-09T18:35:12.274Z,1012.4
2017-08-09T18:36:13.051Z,1012.4
2017-08-09T18:37:13.948Z,1012.4
2017-08-09T18:38:14.656Z,1012.4
2017-08-09T18:39:15.380Z,1012.5
2017-08-09T18:40:16.379Z,1012.5
2017-08-09T18:41:17.100Z,1012.5
2017-08-09T18:42:18.046Z,1012.5
2017-08-09T18:43:18.776Z,1012.6
2017-08-09T18:44:19.490Z,1012.6
2017-08-09T18:45:20.455Z,1012.6
2017-08-09T18:46:21.138Z,1012.6
2017-08-09T18:47:21.981Z,1012.6
2017-08-09T18:48:22.697Z,1012.6
2017-08-09T18:49:23.437Z,1012.6
2017-08-09T18:50:24.150Z,1012.7
2017-08-09T18:51:25.147Z,1012.7
2017-08-09T18:52:25.904Z,1012.7
2017-08-09T18:53:26.712Z,1012.7
2017-08-09T18:54:27.420Z,1012.8
2017-08-09T18:55:28.070Z,1012.8
2017-08-09T18:56:29.106Z,1012.8
2017-08-09T18:57:29.950Z,1012.8
2017-08-09T18:58:30.659Z,1012.8
2017-08-09T18:59:31.362Z,1012.8
2017-08-09T19:00:32.094Z,1012.9
2017-08-09T19:01:32.803Z,1012.9
2017-08-09T19:02:34.024Z,1012.9
2017-08-09T19:03:34.688Z,1012.8
2017-08-09T19:04:35.376Z,1012.9
2017-08-09T19:05:36.181Z,1012.8
2017-08-09T19:06:36.919Z,1012.9
2017-08-09T19:07:37.638Z,1012.8
2017-08-09T19:08:38.673Z,1012.8
2017-08-09T19:09:39.363Z,1012.9